Thompson Airport

CYTH | YTH

Thompson , Manitoba , Canada

Saturday, September 21st, 2019 | 06:40

Weather

CYTH 211116Z 28002KT 1/2SM R06/2800FT/N FG VV002 09/09 A2961 RMK FG8 SLP034

Charts

No Charts Available

Gates

No Gates Available

Runways

2 Available

Events

No events for this airport


New event